createdAt,value
2022-11-09T00:00:41.200Z,80.88
2022-11-09T00:03:08.752Z,80.22
2022-11-09T00:05:36.120Z,79.50
2022-11-09T00:08:06.392Z,79.19
2022-11-09T00:10:33.996Z,79.81
2022-11-09T00:13:02.894Z,79.68
2022-11-09T00:15:30.285Z,80.03
2022-11-09T00:18:01.294Z,79.86
2022-11-09T00:20:28.675Z,80.17
2022-11-09T00:22:56.051Z,79.92
2022-11-09T00:25:23.629Z,79.77
2022-11-09T00:27:51.053Z,79.95
2022-11-09T00:30:19.985Z,79.69
2022-11-09T00:32:48.643Z,79.81
2022-11-09T00:35:16.173Z,79.69
2022-11-09T00:37:43.600Z,79.53
2022-11-09T00:40:12.664Z,79.19
2022-11-09T00:42:40.022Z,79.62
2022-11-09T00:45:08.292Z,79.40
2022-11-09T00:47:37.009Z,79.61
2022-11-09T00:50:04.895Z,79.72
2022-11-09T00:52:32.288Z,79.67
2022-11-09T00:55:00.014Z,79.80
2022-11-09T00:57:27.456Z,79.82
2022-11-09T00:59:54.836Z,78.85
2022-11-09T01:02:22.239Z,79.65
2022-11-09T01:04:51.456Z,79.72
2022-11-09T01:07:19.528Z,78.67
2022-11-09T01:09:47.924Z,79.53
2022-11-09T01:12:15.943Z,79.29
2022-11-09T01:14:43.462Z,79.72
2022-11-09T01:17:10.866Z,80.09
2022-11-09T01:19:38.231Z,79.25
2022-11-09T01:22:06.928Z,79.85
2022-11-09T01:24:34.324Z,79.88
2022-11-09T01:27:01.668Z,79.61
2022-11-09T01:29:29.172Z,79.85
2022-11-09T01:31:56.987Z,78.58
2022-11-09T01:34:24.640Z,78.87
2022-11-09T01:36:52.434Z,78.20
2022-11-09T01:39:21.760Z,78.22
2022-11-09T01:41:50.759Z,78.25
2022-11-09T01:44:19.667Z,78.22
2022-11-09T01:46:50.622Z,77.68
2022-11-09T01:49:24.079Z,77.96
2022-11-09T01:51:53.907Z,77.60
2022-11-09T01:54:30.266Z,77.59
2022-11-09T01:57:00.657Z,77.49
2022-11-09T01:59:30.664Z,77.80
2022-11-09T02:01:59.475Z,78.24
2022-11-09T02:04:30.329Z,78.14
2022-11-09T02:06:58.510Z,78.44
2022-11-09T02:09:30.056Z,79.21
2022-11-09T02:11:57.626Z,78.79
2022-11-09T02:14:27.619Z,78.90
2022-11-09T02:16:55.741Z,78.82
2022-11-09T02:19:23.124Z,79.61
2022-11-09T02:21:51.908Z,79.13
2022-11-09T02:24:19.639Z,78.76
2022-11-09T02:26:49.489Z,78.37
2022-11-09T02:29:23.015Z,78.89
2022-11-09T02:31:54.517Z,79.41
2022-11-09T02:34:22.952Z,79.06
2022-11-09T02:36:51.827Z,79.66
2022-11-09T02:39:24.685Z,80.36
2022-11-09T02:41:55.504Z,80.21
2022-11-09T02:44:24.695Z,79.77
2022-11-09T02:46:52.552Z,79.47
2022-11-09T02:49:20.092Z,79.93
2022-11-09T02:51:47.495Z,79.93
2022-11-09T02:54:16.250Z,80.38
2022-11-09T02:56:43.617Z,79.82
2022-11-09T02:59:13.093Z,79.87
2022-11-09T03:01:40.895Z,80.64
2022-11-09T03:04:08.415Z,80.49
2022-11-09T03:06:36.788Z,80.53
2022-11-09T03:09:11.864Z,81.68
2022-11-09T03:11:41.861Z,81.75
2022-11-09T03:14:11.457Z,81.33
2022-11-09T03:16:47.720Z,82.01
2022-11-09T03:19:17.527Z,82.11
2022-11-09T03:21:46.904Z,82.05
2022-11-09T03:24:14.305Z,82.53
2022-11-09T03:26:43.887Z,82.36
2022-11-09T03:29:11.414Z,82.42
2022-11-09T03:31:39.691Z,83.74
2022-11-09T03:34:09.931Z,83.70
2022-11-09T03:36:37.368Z,83.00
2022-11-09T03:39:04.869Z,83.86
2022-11-09T03:41:33.263Z,84.17
2022-11-09T03:44:02.052Z,83.95
2022-11-09T03:46:29.424Z,84.31
2022-11-09T03:48:56.770Z,84.07
2022-11-09T03:51:24.317Z,84.51
2022-11-09T03:53:51.766Z,84.87
2022-11-09T03:56:19.255Z,85.13
2022-11-09T03:58:46.603Z,84.64
2022-11-09T04:01:15.564Z,85.01
2022-11-09T04:03:43.059Z,85.35
2022-11-09T04:06:10.432Z,84.72
2022-11-09T04:08:37.829Z,85.31
2022-11-09T04:11:05.211Z,85.31
2022-11-09T04:13:32.569Z,85.43
2022-11-09T04:15:59.967Z,85.30
2022-11-09T04:18:28.647Z,85.78
2022-11-09T04:20:58.702Z,85.46
2022-11-09T04:23:26.348Z,85.83
2022-11-09T04:25:53.702Z,86.54
2022-11-09T04:28:21.079Z,86.66
2022-11-09T04:30:48.504Z,86.82
2022-11-09T04:33:15.871Z,86.51
2022-11-09T04:35:44.749Z,86.04
2022-11-09T04:38:14.180Z,87.30
2022-11-09T04:40:41.760Z,87.04
2022-11-09T04:43:11.971Z,86.72
2022-11-09T04:45:39.361Z,86.40
2022-11-09T04:48:08.500Z,86.70
2022-11-09T04:50:36.262Z,86.47
2022-11-09T04:53:09.737Z,87.05
2022-11-09T04:55:39.055Z,87.00
2022-11-09T04:58:07.434Z,86.62
2022-11-09T05:00:35.239Z,87.39
2022-11-09T05:03:03.386Z,87.18
2022-11-09T05:05:31.261Z,87.44
2022-11-09T05:07:58.687Z,88.10
2022-11-09T05:10:27.420Z,87.58
2022-11-09T05:12:58.635Z,87.42
2022-11-09T05:15:26.090Z,87.47
2022-11-09T05:17:53.798Z,86.96
2022-11-09T05:20:21.541Z,87.17
2022-11-09T05:23:06.287Z,87.31
2022-11-09T05:25:35.955Z,87.49
2022-11-09T05:28:03.797Z,86.48
2022-11-09T05:30:31.386Z,86.68
2022-11-09T05:32:58.817Z,86.49
2022-11-09T05:35:26.211Z,86.46
2022-11-09T05:37:53.636Z,86.60
2022-11-09T05:40:21.395Z,87.25
2022-11-09T05:42:50.200Z,87.46
2022-11-09T05:45:41.515Z,86.78
2022-11-09T05:48:07.314Z,87.19
2022-11-09T05:50:34.788Z,87.17
2022-11-09T05:53:34.673Z,87.71
2022-11-09T05:56:04.052Z,87.80
2022-11-09T05:58:36.242Z,86.99
2022-11-09T06:01:05.200Z,87.35
2022-11-09T06:03:32.662Z,87.39
2022-11-09T06:06:07.754Z,87.63
2022-11-09T06:08:36.006Z,87.12
2022-11-09T06:11:05.512Z,87.13
2022-11-09T06:13:34.451Z,86.95
2022-11-09T06:16:03.197Z,86.40
2022-11-09T06:18:31.928Z,86.33
2022-11-09T06:21:00.652Z,86.06
2022-11-09T06:23:29.225Z,86.34
2022-11-09T06:25:58.696Z,85.61
2022-11-09T06:28:26.447Z,85.60
2022-11-09T06:30:58.142Z,85.96
2022-11-09T06:33:25.668Z,86.23
2022-11-09T06:35:56.314Z,86.43
2022-11-09T06:38:24.109Z,86.31
2022-11-09T06:40:52.388Z,86.02
2022-11-09T06:43:20.186Z,85.82
2022-11-09T06:45:47.964Z,85.63
2022-11-09T06:48:16.838Z,85.80
2022-11-09T06:50:44.453Z,86.16
2022-11-09T06:53:13.600Z,86.40
2022-11-09T06:55:49.916Z,86.58
2022-11-09T06:58:19.503Z,86.06
2022-11-09T07:00:47.216Z,86.23
2022-11-09T07:03:15.243Z,85.28
2022-11-09T07:05:44.655Z,85.79
2022-11-09T07:08:12.611Z,85.22
2022-11-09T07:10:40.401Z,85.79
2022-11-09T07:13:08.775Z,85.69
2022-11-09T07:15:37.408Z,86.23
2022-11-09T07:18:07.659Z,85.89
2022-11-09T07:20:35.289Z,85.89
2022-11-09T07:23:04.001Z,85.66
2022-11-09T07:25:32.030Z,85.61
2022-11-09T07:28:03.793Z,85.90
2022-11-09T07:30:31.181Z,84.99
2022-11-09T07:33:09.264Z,85.92
2022-11-09T07:35:37.481Z,85.09
2022-11-09T07:38:06.356Z,84.94
2022-11-09T07:40:34.333Z,84.62
2022-11-09T07:43:02.355Z,84.50
2022-11-09T07:45:33.080Z,84.50
2022-11-09T07:48:02.053Z,85.50
2022-11-09T07:50:30.774Z,84.76
2022-11-09T07:52:58.485Z,84.36
2022-11-09T07:55:28.081Z,84.63
2022-11-09T07:57:56.650Z,85.03
2022-11-09T08:00:24.307Z,84.85
2022-11-09T08:02:52.004Z,84.49
2022-11-09T08:05:19.590Z,84.80
2022-11-09T08:07:47.549Z,85.83
2022-11-09T08:10:15.471Z,85.63
2022-11-09T08:12:44.188Z,86.08
2022-11-09T08:15:12.016Z,86.32
2022-11-09T08:17:39.455Z,85.57
2022-11-09T08:20:07.925Z,85.07
2022-11-09T08:22:42.007Z,85.99
2022-11-09T08:25:10.372Z,85.80
2022-11-09T08:27:40.098Z,85.79
2022-11-09T08:30:13.201Z,85.14
2022-11-09T08:32:41.194Z,84.82
2022-11-09T08:35:10.398Z,85.82
2022-11-09T08:37:38.452Z,86.81
2022-11-09T08:40:08.003Z,86.63
2022-11-09T08:42:35.384Z,86.44
2022-11-09T08:45:02.879Z,87.24
2022-11-09T08:47:31.591Z,86.43
2022-11-09T08:49:58.992Z,85.67
2022-11-09T08:52:26.370Z,86.02
2022-11-09T08:54:53.759Z,87.35
2022-11-09T08:57:21.655Z,87.17
2022-11-09T08:59:49.139Z,88.01
2022-11-09T09:02:17.051Z,89.05
2022-11-09T09:04:45.816Z,89.03
2022-11-09T09:07:13.948Z,87.92
2022-11-09T09:09:41.385Z,87.74
2022-11-09T09:12:09.910Z,87.25
2022-11-09T09:14:37.444Z,87.71
2022-11-09T09:17:04.836Z,88.14
2022-11-09T09:19:32.859Z,88.30
2022-11-09T09:22:01.586Z,87.83
2022-11-09T09:24:28.968Z,87.14
2022-11-09T09:26:56.385Z,86.58
2022-11-09T09:29:23.976Z,87.90
2022-11-09T09:31:51.329Z,86.93
2022-11-09T09:34:18.986Z,87.12
2022-11-09T09:36:48.204Z,86.41
2022-11-09T09:39:17.202Z,86.88
2022-11-09T09:41:48.229Z,86.46
2022-11-09T09:44:24.289Z,86.62
2022-11-09T09:46:56.085Z,85.01
2022-11-09T09:49:27.349Z,85.35
2022-11-09T09:51:57.925Z,84.81
2022-11-09T09:54:28.202Z,85.93
2022-11-09T09:56:59.372Z,84.78
2022-11-09T09:59:33.202Z,84.62
2022-11-09T10:02:00.695Z,85.73
2022-11-09T10:04:34.816Z,83.87
2022-11-09T10:07:05.692Z,83.66
2022-11-09T10:09:46.339Z,81.40
2022-11-09T10:12:20.671Z,81.97
2022-11-09T10:15:02.861Z,81.09
2022-11-09T10:17:39.740Z,80.89
2022-11-09T10:20:27.188Z,79.27
2022-11-09T10:23:01.772Z,78.40
2022-11-09T10:25:57.932Z,79.98
2022-11-09T10:28:21.222Z,79.82
2022-11-09T10:30:50.236Z,80.85
2022-11-09T10:33:21.197Z,80.30
2022-11-09T10:35:51.460Z,79.90
2022-11-09T10:38:22.530Z,79.88
2022-11-09T10:41:16.891Z,80.85
2022-11-09T10:44:02.576Z,80.58
2022-11-09T10:47:18.903Z,79.92
2022-11-09T10:50:15.135Z,79.45
2022-11-09T10:53:15.461Z,78.78
2022-11-09T10:56:19.913Z,79.40
2022-11-09T10:59:31.453Z,79.89
2022-11-09T11:02:45.148Z,79.76
2022-11-09T11:05:33.464Z,77.32
2022-11-09T11:08:26.583Z,79.26
2022-11-09T11:11:33.269Z,79.64
2022-11-09T11:14:23.745Z,79.41
2022-11-09T11:17:22.344Z,79.61
2022-11-09T11:20:32.623Z,80.18
2022-11-09T11:23:23.752Z,79.61
2022-11-09T11:26:35.309Z,77.93
2022-11-09T11:29:44.414Z,78.33
2022-11-09T11:32:30.600Z,78.81
2022-11-09T11:35:18.677Z,78.36
2022-11-09T11:38:15.912Z,77.01
2022-11-09T11:41:06.630Z,76.98
2022-11-09T11:43:58.800Z,75.43
2022-11-09T11:46:47.174Z,74.81
2022-11-09T11:49:44.848Z,75.31
2022-11-09T11:52:37.197Z,74.45
2022-11-09T11:55:52.846Z,73.03
2022-11-09T11:58:50.988Z,73.81
2022-11-09T12:01:50.353Z,72.92
2022-11-09T12:05:00.473Z,75.14
2022-11-09T12:07:56.109Z,72.06
2022-11-09T12:10:50.599Z,72.61
2022-11-09T12:14:00.547Z,71.70
2022-11-09T12:16:52.769Z,70.94
2022-11-09T12:20:04.901Z,71.04
2022-11-09T12:23:00.663Z,72.59
2022-11-09T12:25:51.155Z,71.87
2022-11-09T12:28:52.414Z,73.18
2022-11-09T12:31:50.248Z,71.47
2022-11-09T12:34:39.884Z,70.54
2022-11-09T12:37:28.424Z,68.80
2022-11-09T12:40:23.310Z,70.16
2022-11-09T12:43:15.911Z,69.73
2022-11-09T12:46:05.135Z,70.73
2022-11-09T12:48:52.821Z,71.15
2022-11-09T12:51:38.860Z,70.29
2022-11-09T12:54:25.568Z,71.19
2022-11-09T12:57:16.216Z,71.83
2022-11-09T13:00:02.510Z,71.42
2022-11-09T13:02:57.137Z,70.64
2022-11-09T13:05:45.708Z,70.75
2022-11-09T13:08:32.203Z,68.62
2022-11-09T13:11:23.061Z,66.58
2022-11-09T13:14:35.285Z,68.07
2022-11-09T13:17:52.543Z,66.87
2022-11-09T13:20:58.060Z,66.58
2022-11-09T13:24:03.688Z,66.54
2022-11-09T13:26:58.074Z,65.11
2022-11-09T13:29:55.270Z,64.97
2022-11-09T13:33:19.593Z,64.26
2022-11-09T13:36:23.888Z,65.25
2022-11-09T13:39:33.684Z,65.54
2022-11-09T13:42:27.700Z,66.38
2022-11-09T13:45:28.248Z,65.76
2022-11-09T13:48:40.244Z,66.23
2022-11-09T13:51:40.385Z,65.95
2022-11-09T13:54:31.133Z,67.90
2022-11-09T13:57:18.350Z,68.27
2022-11-09T14:00:06.207Z,67.20
2022-11-09T14:03:02.587Z,66.99
2022-11-09T14:05:50.590Z,66.31
2022-11-09T14:08:40.323Z,67.55
2022-11-09T14:11:54.320Z,66.63
2022-11-09T14:15:08.452Z,65.64
2022-11-09T14:18:04.125Z,65.26
2022-11-09T14:20:55.976Z,65.84
2022-11-09T14:23:42.246Z,67.76
2022-11-09T14:26:28.063Z,66.60
2022-11-09T14:29:21.920Z,66.29
2022-11-09T14:32:24.478Z,66.20
2022-11-09T14:35:13.001Z,67.63
2022-11-09T14:38:01.122Z,67.15
2022-11-09T14:40:48.963Z,66.69
2022-11-09T14:43:38.507Z,66.19
2022-11-09T14:46:28.020Z,65.76
2022-11-09T14:49:15.749Z,68.56
2022-11-09T14:52:02.332Z,68.48
2022-11-09T14:54:49.424Z,68.72
2022-11-09T14:57:36.205Z,67.49
2022-11-09T15:00:28.765Z,68.04
2022-11-09T15:03:26.560Z,68.69
2022-11-09T15:06:16.212Z,69.63
2022-11-09T15:09:05.043Z,69.26
2022-11-09T15:11:51.417Z,70.08
2022-11-09T15:14:37.503Z,69.27
2022-11-09T15:17:27.160Z,70.52
2022-11-09T15:20:29.405Z,69.74
2022-11-09T15:23:38.195Z,70.56
2022-11-09T15:26:33.537Z,71.36
2022-11-09T15:29:31.880Z,71.24
2022-11-09T15:32:19.338Z,72.72
2022-11-09T15:35:15.637Z,72.74
2022-11-09T15:38:01.884Z,72.34
2022-11-09T15:40:49.232Z,71.26
2022-11-09T15:43:35.355Z,71.51
2022-11-09T15:46:23.918Z,71.46
2022-11-09T15:49:16.103Z,71.05
2022-11-09T15:52:02.330Z,70.85
2022-11-09T15:54:48.334Z,71.95
2022-11-09T15:57:35.816Z,71.89
2022-11-09T16:00:23.162Z,71.04
2022-11-09T16:03:10.318Z,71.21
2022-11-09T16:05:56.485Z,72.06
2022-11-09T16:08:42.512Z,72.02
2022-11-09T16:11:28.415Z,71.97
2022-11-09T16:14:17.784Z,71.44
2022-11-09T16:17:04.243Z,72.44
2022-11-09T16:19:52.542Z,72.61
2022-11-09T16:22:38.814Z,72.02
2022-11-09T16:25:24.834Z,72.73
2022-11-09T16:28:11.284Z,72.99
2022-11-09T16:30:58.736Z,73.67
2022-11-09T16:33:44.660Z,73.77
2022-11-09T16:36:31.530Z,73.62
2022-11-09T16:39:17.932Z,73.78
2022-11-09T16:42:07.219Z,73.81
2022-11-09T16:44:58.644Z,74.03
2022-11-09T16:47:48.132Z,74.44
2022-11-09T16:50:34.218Z,75.29
2022-11-09T16:53:25.548Z,75.11
2022-11-09T16:56:12.598Z,76.16
2022-11-09T16:58:58.811Z,76.63
2022-11-09T17:01:51.032Z,76.76
2022-11-09T17:04:38.648Z,76.97
2022-11-09T17:07:24.812Z,76.64
2022-11-09T17:10:11.512Z,76.69
2022-11-09T17:12:57.856Z,76.46
2022-11-09T17:15:45.062Z,76.32
2022-11-09T17:18:30.903Z,75.95
2022-11-09T17:21:24.573Z,76.45
2022-11-09T17:24:10.939Z,76.49
2022-11-09T17:27:00.820Z,76.52
2022-11-09T17:29:52.543Z,77.52
2022-11-09T17:32:46.116Z,78.73
2022-11-09T17:35:36.546Z,77.91
2022-11-09T17:38:23.859Z,78.76
2022-11-09T17:41:11.921Z,77.56
2022-11-09T17:44:01.233Z,79.05
2022-11-09T17:46:47.356Z,79.31
2022-11-09T17:49:34.221Z,79.61
2022-11-09T17:52:20.596Z,79.60
2022-11-09T17:55:08.790Z,79.39
2022-11-09T17:57:54.886Z,79.74
2022-11-09T18:00:41.271Z,80.20
2022-11-09T18:03:27.520Z,80.44
2022-11-09T18:06:15.590Z,81.02
2022-11-09T18:09:39.145Z,81.22
2022-11-09T18:12:09.623Z,80.30
2022-11-09T18:14:55.796Z,79.13
2022-11-09T18:17:42.084Z,79.61
2022-11-09T18:20:27.981Z,78.99
2022-11-09T18:23:13.902Z,78.10
2022-11-09T18:26:00.457Z,79.48
2022-11-09T18:28:47.771Z,79.14
2022-11-09T18:31:33.653Z,79.64
2022-11-09T18:34:19.640Z,80.00
2022-11-09T18:37:05.658Z,80.64
2022-11-09T18:39:51.518Z,81.95
2022-11-09T18:42:37.704Z,81.86
2022-11-09T18:45:24.994Z,81.55
2022-11-09T18:48:10.906Z,81.17
2022-11-09T18:50:58.648Z,82.00
2022-11-09T18:53:45.785Z,82.23
2022-11-09T18:56:31.870Z,82.33
2022-11-09T18:59:17.967Z,81.65
2022-11-09T19:02:07.191Z,82.54
2022-11-09T19:04:53.196Z,82.79
2022-11-09T19:07:38.963Z,82.80
2022-11-09T19:10:25.062Z,83.78
2022-11-09T19:13:11.194Z,83.87
2022-11-09T19:15:58.406Z,83.51
2022-11-09T19:18:46.286Z,84.49
2022-11-09T19:21:38.688Z,84.72
2022-11-09T19:24:28.453Z,84.89
2022-11-09T19:27:14.363Z,84.83
2022-11-09T19:30:04.811Z,85.02
2022-11-09T19:32:54.169Z,85.77
2022-11-09T19:35:41.560Z,85.31
2022-11-09T19:38:27.511Z,85.35
2022-11-09T19:41:13.527Z,85.30
2022-11-09T19:44:00.036Z,85.27
2022-11-09T19:46:46.123Z,85.01
2022-11-09T19:49:34.673Z,84.90
2022-11-09T19:52:22.410Z,84.71
2022-11-09T19:55:09.495Z,84.25
2022-11-09T19:57:55.710Z,83.92
2022-11-09T20:00:42.217Z,83.86
2022-11-09T20:03:28.100Z,84.44
2022-11-09T20:06:13.998Z,83.41
2022-11-09T20:09:01.808Z,83.61
2022-11-09T20:12:06.185Z,83.50
2022-11-09T20:14:52.171Z,83.89
2022-11-09T20:17:38.429Z,84.78
2022-11-09T20:20:24.613Z,83.37
2022-11-09T20:23:10.630Z,84.03
2022-11-09T20:26:05.386Z,84.40
2022-11-09T20:28:53.037Z,84.32
2022-11-09T20:31:39.386Z,84.08
2022-11-09T20:34:25.884Z,84.13
2022-11-09T20:37:11.903Z,84.23
2022-11-09T20:39:58.232Z,83.29
2022-11-09T20:42:45.540Z,83.37
2022-11-09T20:45:31.499Z,83.25
2022-11-09T20:48:38.563Z,83.07
2022-11-09T20:51:24.684Z,83.04
2022-11-09T20:54:10.751Z,82.70
2022-11-09T20:56:56.924Z,81.93
2022-11-09T20:59:44.252Z,82.64
2022-11-09T21:02:30.347Z,83.13
2022-11-09T21:05:16.783Z,82.57
2022-11-09T21:08:02.808Z,82.24
2022-11-09T21:10:48.802Z,82.58
2022-11-09T21:13:34.865Z,82.48
2022-11-09T21:16:23.436Z,82.18
2022-11-09T21:19:09.611Z,82.54
2022-11-09T21:21:56.508Z,82.52
2022-11-09T21:24:59.799Z,82.88
2022-11-09T21:28:03.236Z,83.67
2022-11-09T21:30:49.385Z,83.14
2022-11-09T21:33:36.619Z,83.05
2022-11-09T21:36:23.077Z,84.93
2022-11-09T21:39:09.197Z,85.38
2022-11-09T21:41:55.516Z,85.99
2022-11-09T21:44:41.669Z,86.61
2022-11-09T21:47:27.720Z,87.39
2022-11-09T21:50:15.132Z,87.90
2022-11-09T21:53:01.458Z,87.33
2022-11-09T21:55:47.812Z,85.97
2022-11-09T21:58:34.091Z,86.15
2022-11-09T22:01:20.524Z,86.28
2022-11-09T22:04:06.440Z,85.60
2022-11-09T22:06:53.915Z,85.86
2022-11-09T22:10:08.256Z,85.98
2022-11-09T22:13:03.155Z,86.04
2022-11-09T22:16:07.883Z,86.12
2022-11-09T22:19:11.865Z,86.61
2022-11-09T22:21:59.439Z,86.68
2022-11-09T22:24:45.671Z,88.01
2022-11-09T22:27:32.403Z,88.45
2022-11-09T22:30:18.527Z,88.65
2022-11-09T22:33:04.997Z,88.15
2022-11-09T22:35:54.649Z,88.38
2022-11-09T22:38:42.024Z,88.87
2022-11-09T22:41:28.071Z,88.37
2022-11-09T22:44:14.042Z,89.20
2022-11-09T22:47:00.280Z,90.24
2022-11-09T22:49:46.596Z,90.07
2022-11-09T22:52:32.894Z,91.35
2022-11-09T22:55:20.284Z,91.58
2022-11-09T22:58:06.082Z,91.76
2022-11-09T23:00:52.160Z,93.17
2022-11-09T23:03:38.795Z,92.94
2022-11-09T23:06:25.364Z,92.57
2022-11-09T23:09:11.667Z,92.04
2022-11-09T23:11:58.810Z,93.40
2022-11-09T23:15:02.048Z,93.77
2022-11-09T23:18:05.727Z,92.88
2022-11-09T23:20:51.747Z,91.73
2022-11-09T23:23:37.929Z,91.38
2022-11-09T23:26:24.892Z,91.61
2022-11-09T23:29:12.348Z,91.17
2022-11-09T23:31:58.475Z,91.17
2022-11-09T23:34:44.462Z,91.07
2022-11-09T23:37:30.611Z,90.97
2022-11-09T23:40:16.897Z,90.21
2022-11-09T23:43:03.527Z,90.42
2022-11-09T23:45:51.083Z,90.25
2022-11-09T23:48:37.108Z,90.24
2022-11-09T23:51:23.614Z,91.92
2022-11-09T23:54:09.451Z,92.39
2022-11-09T23:56:55.669Z,92.11
2022-11-09T23:59:41.805Z,92.98
